createdAt,value
2023-02-18T00:01:48.283Z,101374.19
2023-02-18T00:04:17.315Z,101357.88
2023-02-18T00:06:46.554Z,101382.28
2023-02-18T00:09:15.700Z,101386.78
2023-02-18T00:11:46.132Z,101381.16
2023-02-18T00:14:17.171Z,101388.34
2023-02-18T00:16:47.209Z,101364.03
2023-02-18T00:19:18.916Z,101375.44
2023-02-18T00:21:48.315Z,101359.59
2023-02-18T00:24:17.967Z,101379.31
2023-02-18T00:26:50.962Z,101384.19
2023-02-18T00:29:20.414Z,101370.94
2023-02-18T00:31:50.659Z,101385.38
2023-02-18T00:34:19.750Z,101385.03
2023-02-18T00:36:48.828Z,101388.13
2023-02-18T00:39:18.041Z,101400.41
2023-02-18T00:41:48.522Z,101389.78
2023-02-18T00:44:17.624Z,101392.41
2023-02-18T00:46:48.146Z,101397.41
2023-02-18T00:49:17.292Z,101396.03
2023-02-18T00:51:46.396Z,101405.00
2023-02-18T00:54:15.480Z,101407.31
2023-02-18T00:56:44.569Z,101405.56
2023-02-18T00:59:15.139Z,101404.53
2023-02-18T01:01:44.260Z,101413.06
2023-02-18T01:04:13.357Z,101416.28
2023-02-18T01:06:42.401Z,101418.00
2023-02-18T01:09:12.006Z,101416.25
2023-02-18T01:11:41.077Z,101414.19
2023-02-18T01:14:10.200Z,101425.97
2023-02-18T01:16:40.652Z,101418.59
2023-02-18T01:19:10.834Z,101420.44
2023-02-18T01:21:40.868Z,101427.34
2023-02-18T01:24:10.475Z,101419.22
2023-02-18T01:26:39.597Z,101426.88
2023-02-18T01:29:08.635Z,101425.47
2023-02-18T01:31:39.187Z,101427.44
2023-02-18T01:34:08.286Z,101435.06
2023-02-18T01:36:37.401Z,101429.09
2023-02-18T01:39:07.275Z,101432.53
2023-02-18T01:41:36.404Z,101436.00
2023-02-18T01:44:17.386Z,101417.63
2023-02-18T01:46:50.263Z,101428.09
2023-02-18T01:49:23.960Z,101427.25
2023-02-18T01:51:56.693Z,101422.69
2023-02-18T01:54:30.120Z,101419.97
2023-02-18T01:57:02.488Z,101417.72
2023-02-18T01:59:35.501Z,101415.75
2023-02-18T02:02:08.222Z,101410.47
2023-02-18T02:04:37.440Z,101410.91
2023-02-18T02:07:06.721Z,101405.63
2023-02-18T02:09:36.927Z,101400.31
2023-02-18T02:12:37.586Z,101403.94
2023-02-18T02:15:20.425Z,101397.88
2023-02-18T02:18:01.775Z,101386.25
2023-02-18T02:21:05.430Z,101392.28
2023-02-18T02:24:11.795Z,101399.38
2023-02-18T02:27:09.854Z,101395.66
2023-02-18T02:30:09.035Z,101384.94
2023-02-18T02:33:02.640Z,101386.88
2023-02-18T02:35:36.825Z,101381.22
2023-02-18T02:38:14.138Z,101381.94
2023-02-18T02:40:47.391Z,101387.06
2023-02-18T02:43:27.324Z,101383.34
2023-02-18T02:46:02.503Z,101380.44
2023-02-18T02:48:40.212Z,101374.97
2023-02-18T02:51:15.928Z,101376.94
2023-02-18T02:53:45.428Z,101369.66
2023-02-18T02:56:17.559Z,101357.88
2023-02-18T02:58:53.782Z,101360.28
2023-02-18T03:01:37.244Z,101356.75
2023-02-18T03:04:31.105Z,101362.81
2023-02-18T03:07:19.146Z,101358.06
2023-02-18T03:10:09.735Z,101356.38
2023-02-18T03:12:47.796Z,101359.81
2023-02-18T03:15:24.592Z,101358.06
2023-02-18T03:17:59.951Z,101368.47
2023-02-18T03:20:36.367Z,101355.78
2023-02-18T03:23:12.837Z,101346.94
2023-02-18T03:25:43.172Z,101352.38
2023-02-18T03:28:16.184Z,101355.72
2023-02-18T03:30:48.836Z,101360.28
2023-02-18T03:33:24.554Z,101357.66
2023-02-18T03:35:57.292Z,101351.16
2023-02-18T03:38:32.762Z,101346.88
2023-02-18T03:41:01.872Z,101353.66
2023-02-18T03:43:31.673Z,101349.00
2023-02-18T03:46:03.505Z,101351.22
2023-02-18T03:48:32.633Z,101351.13
2023-02-18T03:51:01.769Z,101353.91
2023-02-18T03:53:32.258Z,101352.53
2023-02-18T03:56:01.342Z,101347.84
2023-02-18T03:58:30.398Z,101343.41
2023-02-18T04:00:59.500Z,101343.13
2023-02-18T04:03:28.666Z,101354.19
2023-02-18T04:05:57.745Z,101357.81
2023-02-18T04:08:26.885Z,101365.09
2023-02-18T04:10:57.572Z,101369.56
2023-02-18T04:13:26.660Z,101369.69
2023-02-18T04:15:55.814Z,101355.03
2023-02-18T04:18:25.487Z,101349.19
2023-02-18T04:20:54.595Z,101350.22
2023-02-18T04:23:24.087Z,101358.22
2023-02-18T04:25:53.408Z,101350.03
2023-02-18T04:28:23.960Z,101344.09
2023-02-18T04:30:53.203Z,101339.41
2023-02-18T04:33:22.309Z,101329.47
2023-02-18T04:35:51.384Z,101334.09
2023-02-18T04:38:20.566Z,101322.84
2023-02-18T04:40:49.666Z,101321.84
2023-02-18T04:43:18.775Z,101324.06
2023-02-18T04:45:49.221Z,101319.31
2023-02-18T04:48:18.337Z,101324.16
2023-02-18T04:50:47.370Z,101327.78
2023-02-18T04:53:16.498Z,101325.38
2023-02-18T04:55:50.108Z,101331.13
2023-02-18T04:58:19.509Z,101324.34
2023-02-18T05:00:50.039Z,101322.75
2023-02-18T05:03:19.418Z,101318.56
2023-02-18T05:05:48.488Z,101311.56
2023-02-18T05:08:18.962Z,101323.09
2023-02-18T05:10:48.052Z,101309.44
2023-02-18T05:13:17.348Z,101306.38
2023-02-18T05:15:46.468Z,101305.81
2023-02-18T05:18:16.904Z,101315.47
2023-02-18T05:20:45.971Z,101317.09
2023-02-18T05:23:15.597Z,101311.97
2023-02-18T05:25:44.699Z,101305.78
2023-02-18T05:28:13.800Z,101304.88
2023-02-18T05:30:42.932Z,101291.47
2023-02-18T05:33:11.988Z,101296.59
2023-02-18T05:35:42.454Z,101288.13
2023-02-18T05:38:11.567Z,101283.25
2023-02-18T05:40:41.269Z,101288.66
2023-02-18T05:43:10.317Z,101282.53
2023-02-18T05:45:39.445Z,101279.66
2023-02-18T05:48:08.578Z,101276.28
2023-02-18T05:50:37.752Z,101272.88
2023-02-18T05:53:08.299Z,101268.56
2023-02-18T05:55:42.918Z,101271.72
2023-02-18T05:58:12.824Z,101263.66
2023-02-18T06:00:41.887Z,101278.69
2023-02-18T06:03:10.996Z,101271.88
2023-02-18T06:05:40.121Z,101273.50
2023-02-18T06:08:10.557Z,101265.69
2023-02-18T06:10:41.184Z,101261.03
2023-02-18T06:13:10.264Z,101261.19
2023-02-18T06:15:39.887Z,101253.50
2023-02-18T06:18:08.979Z,101241.09
2023-02-18T06:20:38.051Z,101233.22
2023-02-18T06:23:07.683Z,101232.28
2023-02-18T06:25:38.301Z,101217.28
2023-02-18T06:28:07.417Z,101218.78
2023-02-18T06:30:37.015Z,101208.00
2023-02-18T06:33:06.435Z,101206.88
2023-02-18T06:35:36.077Z,101205.47
2023-02-18T06:38:05.717Z,101204.78
2023-02-18T06:40:35.322Z,101203.44
2023-02-18T06:43:06.397Z,101209.16
2023-02-18T06:45:36.107Z,101205.53
2023-02-18T06:48:05.639Z,101193.44
2023-02-18T06:50:34.994Z,101189.91
2023-02-18T06:53:04.092Z,101184.47
2023-02-18T06:55:33.197Z,101178.59
2023-02-18T06:58:02.258Z,101179.75
2023-02-18T07:00:33.070Z,101171.34
2023-02-18T07:03:02.297Z,101162.78
2023-02-18T07:05:31.479Z,101160.84
2023-02-18T07:08:00.544Z,101151.53
2023-02-18T07:10:29.673Z,101151.66
2023-02-18T07:12:58.726Z,101148.38
2023-02-18T07:15:28.016Z,101154.34
2023-02-18T07:17:58.715Z,101149.97
2023-02-18T07:20:28.085Z,101158.53
2023-02-18T07:22:57.202Z,101149.31
2023-02-18T07:25:26.738Z,101156.06
2023-02-18T07:27:55.829Z,101144.38
2023-02-18T07:30:25.089Z,101130.59
2023-02-18T07:32:54.190Z,101114.09
2023-02-18T07:35:24.729Z,101118.63
2023-02-18T07:37:53.832Z,101108.78
2023-02-18T07:40:23.700Z,101108.88
2023-02-18T07:42:52.880Z,101096.28
2023-02-18T07:45:21.972Z,101098.81
2023-02-18T07:47:51.061Z,101092.56
2023-02-18T07:50:20.307Z,101081.91
2023-02-18T07:52:50.812Z,101067.69
2023-02-18T07:55:20.008Z,101056.81
2023-02-18T07:58:02.278Z,101042.84
2023-02-18T08:00:31.465Z,101036.84
2023-02-18T08:03:00.512Z,101027.22
2023-02-18T08:05:29.572Z,101034.28
2023-02-18T08:08:00.024Z,101021.88
2023-02-18T08:10:29.207Z,101025.31
2023-02-18T08:12:58.345Z,101029.34
2023-02-18T08:15:27.366Z,101023.38
2023-02-18T08:17:56.492Z,101027.91
2023-02-18T08:20:25.584Z,101024.41
2023-02-18T08:22:54.655Z,101021.59
2023-02-18T08:25:29.814Z,101021.97
2023-02-18T08:27:59.737Z,101026.88
2023-02-18T08:30:29.156Z,101022.16
2023-02-18T08:32:58.749Z,101014.34
2023-02-18T08:35:27.878Z,101015.75
2023-02-18T08:37:57.803Z,101004.63
2023-02-18T08:40:29.085Z,101006.59
2023-02-18T08:42:58.231Z,100991.25
2023-02-18T08:45:27.557Z,100993.91
2023-02-18T08:48:16.306Z,100992.03
2023-02-18T08:50:45.752Z,100973.53
2023-02-18T08:53:14.902Z,100957.34
2023-02-18T08:55:45.606Z,100959.66
2023-02-18T08:58:15.033Z,100956.56
2023-02-18T09:00:45.124Z,100954.09
2023-02-18T09:03:15.350Z,100935.31
2023-02-18T09:05:44.465Z,100930.47
2023-02-18T09:08:13.493Z,100919.63
2023-02-18T09:10:46.265Z,100905.47
2023-02-18T09:13:15.421Z,100895.28
2023-02-18T09:15:44.568Z,100884.63
2023-02-18T09:18:13.660Z,100876.94
2023-02-18T09:20:42.780Z,100875.41
2023-02-18T09:23:11.834Z,100867.44
2023-02-18T09:25:41.655Z,100877.94
2023-02-18T09:28:12.099Z,100873.03
2023-02-18T09:30:41.343Z,100866.06
2023-02-18T09:33:10.474Z,100869.59
2023-02-18T09:35:41.564Z,100852.97
2023-02-18T09:38:12.096Z,100842.03
2023-02-18T09:40:45.309Z,100838.19
2023-02-18T09:43:23.554Z,100843.91
2023-02-18T09:45:54.684Z,100840.91
2023-02-18T09:48:29.621Z,100835.59
2023-02-18T09:50:59.211Z,100831.31
2023-02-18T09:53:28.859Z,100830.78
2023-02-18T09:55:59.950Z,100815.88
2023-02-18T09:58:33.711Z,100807.66
2023-02-18T10:01:12.367Z,100804.44
2023-02-18T10:03:43.790Z,100793.19
2023-02-18T10:06:18.751Z,100779.44
2023-02-18T10:08:50.289Z,100784.00
2023-02-18T10:11:25.622Z,100777.88
2023-02-18T10:13:56.420Z,100784.44
2023-02-18T10:16:26.747Z,100784.97
2023-02-18T10:18:58.607Z,100798.91
2023-02-18T10:21:31.402Z,100785.88
2023-02-18T10:24:04.842Z,100784.25
2023-02-18T10:26:37.087Z,100779.44
2023-02-18T10:29:15.183Z,100782.53
2023-02-18T10:31:48.129Z,100780.69
2023-02-18T10:34:31.753Z,100774.53
2023-02-18T10:37:08.567Z,100765.66
2023-02-18T10:39:57.113Z,100771.47
2023-02-18T10:42:37.603Z,100763.25
2023-02-18T10:45:19.831Z,100749.91
2023-02-18T10:47:59.488Z,100747.16
2023-02-18T10:50:32.876Z,100739.88
2023-02-18T10:53:11.771Z,100719.91
2023-02-18T10:55:43.721Z,100726.19
2023-02-18T10:58:29.160Z,100716.13
2023-02-18T11:01:01.576Z,100715.94
2023-02-18T11:03:42.668Z,100704.34
2023-02-18T11:06:22.039Z,100693.91
2023-02-18T11:08:51.801Z,100688.00
2023-02-18T11:11:26.422Z,100681.03
2023-02-18T11:13:57.380Z,100673.50
2023-02-18T11:16:40.015Z,100680.84
2023-02-18T11:19:34.075Z,100674.50
2023-02-18T11:22:13.681Z,100660.91
2023-02-18T11:24:48.140Z,100665.16
2023-02-18T11:27:24.190Z,100642.19
2023-02-18T11:29:56.114Z,100635.81
2023-02-18T11:32:29.997Z,100641.34
2023-02-18T11:34:59.328Z,100640.63
2023-02-18T11:37:28.397Z,100638.56
2023-02-18T11:39:58.132Z,100638.00
2023-02-18T11:42:28.398Z,100629.06
2023-02-18T11:44:59.627Z,100628.34
2023-02-18T11:47:35.518Z,100625.28
2023-02-18T11:50:17.686Z,100621.16
2023-02-18T11:52:48.707Z,100625.56
2023-02-18T11:55:20.980Z,100632.66
2023-02-18T11:57:56.032Z,100627.47
2023-02-18T12:00:35.370Z,100637.94
2023-02-18T12:03:15.042Z,100643.69
2023-02-18T12:05:45.961Z,100641.97
2023-02-18T12:08:20.249Z,100650.66
2023-02-18T12:10:52.364Z,100657.31
2023-02-18T12:13:27.213Z,100656.03
2023-02-18T12:16:10.320Z,100651.88
2023-02-18T12:18:58.627Z,100651.66
2023-02-18T12:21:54.846Z,100640.03
2023-02-18T12:24:45.438Z,100642.44
2023-02-18T12:27:21.655Z,100627.81
2023-02-18T12:30:29.266Z,100643.69
2023-02-18T12:33:07.934Z,100634.53
2023-02-18T12:35:53.001Z,100635.16
2023-02-18T12:38:57.872Z,100640.91
2023-02-18T12:41:53.875Z,100639.31
2023-02-18T12:44:45.214Z,100650.44
2023-02-18T12:47:51.993Z,100644.50
2023-02-18T12:50:51.188Z,100663.88
2023-02-18T12:53:33.710Z,100660.13
2023-02-18T12:56:33.487Z,100672.13
2023-02-18T12:59:13.412Z,100667.03
2023-02-18T13:01:54.490Z,100685.19
2023-02-18T13:04:37.439Z,100679.66
2023-02-18T13:07:54.448Z,100681.91
2023-02-18T13:10:43.391Z,100688.84
2023-02-18T13:13:17.555Z,100692.88
2023-02-18T13:15:54.098Z,100690.91
2023-02-18T13:18:27.629Z,100690.06
2023-02-18T13:21:00.193Z,100710.41
2023-02-18T13:23:32.495Z,100725.00
2023-02-18T13:26:05.991Z,100738.66
2023-02-18T13:28:44.956Z,100759.09
2023-02-18T13:31:32.505Z,100768.47
2023-02-18T13:34:11.882Z,100776.16
2023-02-18T13:36:51.833Z,100783.22
2023-02-18T13:39:24.415Z,100777.94
2023-02-18T13:42:21.833Z,100780.69
2023-02-18T13:45:26.168Z,100793.16
2023-02-18T13:47:56.226Z,100809.19
2023-02-18T13:50:32.264Z,100806.41
2023-02-18T13:53:26.552Z,100807.88
2023-02-18T13:56:10.551Z,100829.75
2023-02-18T13:58:50.011Z,100828.41
2023-02-18T14:01:37.424Z,100833.84
2023-02-18T14:04:37.403Z,100843.00
2023-02-18T14:07:39.200Z,100843.06
2023-02-18T14:10:25.202Z,100851.31
2023-02-18T14:13:18.922Z,100858.81
2023-02-18T14:16:01.934Z,100866.59
2023-02-18T14:18:50.479Z,100866.66
2023-02-18T14:21:38.700Z,100878.03
2023-02-18T14:24:10.546Z,100876.34
2023-02-18T14:26:45.707Z,100892.88
2023-02-18T14:29:21.802Z,100888.88
2023-02-18T14:31:58.632Z,100894.91
2023-02-18T14:35:09.742Z,100899.03
2023-02-18T14:38:03.661Z,100908.84
2023-02-18T14:41:03.055Z,100920.03
2023-02-18T14:44:01.972Z,100919.00
2023-02-18T14:46:44.537Z,100928.03
2023-02-18T14:49:38.395Z,100929.00
2023-02-18T14:52:13.665Z,100921.78
2023-02-18T14:54:43.230Z,100925.56
2023-02-18T14:57:18.290Z,100921.63
2023-02-18T14:59:48.480Z,100931.25
2023-02-18T15:02:21.919Z,100930.97
2023-02-18T15:04:52.330Z,100935.56
2023-02-18T15:07:22.755Z,100947.22
2023-02-18T15:09:55.692Z,100943.59
2023-02-18T15:12:26.434Z,100941.44
2023-02-18T15:15:06.462Z,100960.13
2023-02-18T15:17:35.610Z,100976.84
2023-02-18T15:20:08.980Z,100971.50
2023-02-18T15:22:38.431Z,100973.50
2023-02-18T15:25:08.605Z,100984.06
2023-02-18T15:27:44.281Z,100992.38
2023-02-18T15:30:22.977Z,100999.63
2023-02-18T15:32:53.811Z,101008.56
2023-02-18T15:35:29.202Z,101007.44
2023-02-18T15:38:00.022Z,101005.97
2023-02-18T15:40:31.979Z,101010.25
2023-02-18T15:43:05.043Z,101005.47
2023-02-18T15:45:36.983Z,101016.66
2023-02-18T15:48:07.180Z,101025.56
2023-02-18T15:50:46.748Z,101018.97
2023-02-18T15:53:17.951Z,101031.78
2023-02-18T15:55:50.377Z,101040.06
2023-02-18T15:58:23.432Z,101047.84
2023-02-18T16:00:55.324Z,101049.44
2023-02-18T16:03:26.133Z,101053.66
2023-02-18T16:06:19.588Z,101059.97
2023-02-18T16:08:59.037Z,101061.28
2023-02-18T16:11:32.218Z,101073.34
2023-02-18T16:14:02.849Z,101078.25
2023-02-18T16:16:34.479Z,101076.22
2023-02-18T16:19:04.502Z,101083.75
2023-02-18T16:21:39.864Z,101091.59
2023-02-18T16:24:26.356Z,101086.16
2023-02-18T16:26:57.916Z,101091.19
2023-02-18T16:29:35.032Z,101087.66
2023-02-18T16:32:04.685Z,101086.06
2023-02-18T16:34:35.715Z,101087.75
2023-02-18T16:37:23.713Z,101100.59
2023-02-18T16:39:55.216Z,101104.63
2023-02-18T16:42:24.520Z,101102.41
2023-02-18T16:44:53.590Z,101101.22
2023-02-18T16:47:22.974Z,101105.78
2023-02-18T16:49:53.123Z,101116.09
2023-02-18T16:52:23.581Z,101121.47
2023-02-18T16:54:54.389Z,101124.19
2023-02-18T16:57:23.589Z,101128.81
2023-02-18T16:59:52.648Z,101130.69
2023-02-18T17:02:23.384Z,101121.41
2023-02-18T17:04:57.373Z,101135.66
2023-02-18T17:07:27.942Z,101152.63
2023-02-18T17:09:57.096Z,101151.47
2023-02-18T17:12:26.221Z,101143.66
2023-02-18T17:14:55.292Z,101144.97
2023-02-18T17:17:24.433Z,101144.63
2023-02-18T17:19:53.484Z,101144.41
2023-02-18T17:22:22.527Z,101146.25
2023-02-18T17:24:52.995Z,101146.06
2023-02-18T17:27:22.279Z,101158.88
2023-02-18T17:29:51.339Z,101164.06
2023-02-18T17:32:20.615Z,101168.03
2023-02-18T17:34:50.303Z,101179.47
2023-02-18T17:37:19.383Z,101188.00
2023-02-18T17:39:49.007Z,101187.09
2023-02-18T17:42:21.094Z,101191.78
2023-02-18T17:44:50.140Z,101196.22
2023-02-18T17:47:19.220Z,101195.06
2023-02-18T17:49:48.299Z,101197.56
2023-02-18T17:52:30.675Z,101206.72
2023-02-18T17:54:59.774Z,101201.25
2023-02-18T17:57:30.259Z,101207.97
2023-02-18T17:59:59.337Z,101207.56
2023-02-18T18:02:29.801Z,101209.91
2023-02-18T18:04:59.144Z,101211.25
2023-02-18T18:07:28.428Z,101216.47
2023-02-18T18:09:57.685Z,101219.81
2023-02-18T18:12:27.101Z,101225.69
2023-02-18T18:14:57.742Z,101229.13
2023-02-18T18:17:27.185Z,101234.59
2023-02-18T18:19:56.485Z,101249.09
2023-02-18T18:22:29.187Z,101248.53
2023-02-18T18:24:58.434Z,101248.44
2023-02-18T18:27:27.807Z,101258.69
2023-02-18T18:29:59.054Z,101255.75
2023-02-18T18:32:28.137Z,101263.88
2023-02-18T18:34:57.269Z,101261.53
2023-02-18T18:37:26.420Z,101266.16
2023-02-18T18:39:55.511Z,101275.88
2023-02-18T18:42:24.768Z,101275.34
2023-02-18T18:44:53.920Z,101279.88
2023-02-18T18:47:27.538Z,101276.53
2023-02-18T18:49:56.885Z,101287.00
2023-02-18T18:52:26.118Z,101292.25
2023-02-18T18:54:55.420Z,101297.13
2023-02-18T18:57:24.577Z,101290.06
2023-02-18T18:59:53.702Z,101293.91
2023-02-18T19:02:23.194Z,101298.44
2023-02-18T19:04:53.611Z,101299.34
2023-02-18T19:07:22.834Z,101304.69
2023-02-18T19:09:52.130Z,101309.72
2023-02-18T19:12:21.419Z,101311.56
2023-02-18T19:14:50.761Z,101308.75
2023-02-18T19:17:20.081Z,101304.19
2023-02-18T19:19:49.267Z,101303.41
2023-02-18T19:22:21.494Z,101311.03
2023-02-18T19:24:50.880Z,101306.16
2023-02-18T19:27:20.192Z,101309.00
2023-02-18T19:29:50.761Z,101316.03
2023-02-18T19:32:19.976Z,101326.72
2023-02-18T19:34:49.301Z,101327.63
2023-02-18T19:37:23.474Z,101322.69
2023-02-18T19:39:52.554Z,101323.38
2023-02-18T19:42:24.430Z,101319.84
2023-02-18T19:44:55.753Z,101329.69
2023-02-18T19:47:26.246Z,101318.31
2023-02-18T19:49:55.374Z,101314.81
2023-02-18T19:52:26.382Z,101327.88
2023-02-18T19:54:56.034Z,101328.78
2023-02-18T19:57:25.400Z,101330.41
2023-02-18T19:59:54.892Z,101330.78
2023-02-18T20:02:26.527Z,101327.03
2023-02-18T20:04:56.314Z,101336.88
2023-02-18T20:07:27.256Z,101342.22
2023-02-18T20:09:56.716Z,101348.16
2023-02-18T20:12:26.288Z,101354.72
2023-02-18T20:14:55.698Z,101353.50
2023-02-18T20:17:25.001Z,101354.19
2023-02-18T20:19:54.129Z,101357.16
2023-02-18T20:22:23.541Z,101350.06
2023-02-18T20:24:54.108Z,101349.22
2023-02-18T20:27:23.417Z,101342.50
2023-02-18T20:29:52.764Z,101345.78
2023-02-18T20:32:22.267Z,101342.13
2023-02-18T20:34:51.516Z,101339.63
2023-02-18T20:37:23.101Z,101335.63
2023-02-18T20:39:53.682Z,101334.25
2023-02-18T20:42:25.957Z,101345.41
2023-02-18T20:44:55.031Z,101340.06
2023-02-18T20:47:24.214Z,101351.34
2023-02-18T20:49:56.390Z,101358.91
2023-02-18T20:52:25.617Z,101357.91
2023-02-18T20:54:56.208Z,101359.13
2023-02-18T20:57:25.356Z,101360.03
2023-02-18T20:59:54.772Z,101359.28
2023-02-18T21:02:23.976Z,101369.13
2023-02-18T21:04:53.144Z,101370.72
2023-02-18T21:07:22.848Z,101368.03
2023-02-18T21:09:52.168Z,101366.53
2023-02-18T21:12:22.774Z,101363.47
2023-02-18T21:14:52.089Z,101361.41
2023-02-18T21:17:22.131Z,101363.53
2023-02-18T21:19:51.515Z,101359.09
2023-02-18T21:22:20.938Z,101362.63
2023-02-18T21:24:52.234Z,101351.09
2023-02-18T21:27:22.830Z,101354.75
2023-02-18T21:29:52.130Z,101348.38
2023-02-18T21:32:21.534Z,101359.09
2023-02-18T21:34:51.017Z,101358.97
2023-02-18T21:37:20.641Z,101360.25
2023-02-18T21:39:49.689Z,101367.03
2023-02-18T21:42:18.769Z,101353.88
2023-02-18T21:44:50.350Z,101347.28
2023-02-18T21:47:21.150Z,101348.28
2023-02-18T21:49:50.389Z,101348.00
2023-02-18T21:52:21.645Z,101349.53
2023-02-18T21:54:53.789Z,101341.22
2023-02-18T21:57:23.278Z,101345.72
2023-02-18T21:59:53.883Z,101335.56
2023-02-18T22:02:29.004Z,101343.34
2023-02-18T22:04:58.535Z,101341.28
2023-02-18T22:07:28.863Z,101342.59
2023-02-18T22:09:58.001Z,101343.66
2023-02-18T22:12:27.907Z,101343.50
2023-02-18T22:14:58.432Z,101346.63
2023-02-18T22:17:29.711Z,101343.38
2023-02-18T22:19:58.820Z,101352.97
2023-02-18T22:22:28.274Z,101348.47
2023-02-18T22:24:57.710Z,101350.91
2023-02-18T22:27:27.448Z,101357.16
2023-02-18T22:29:58.157Z,101356.25
2023-02-18T22:32:27.467Z,101347.94
2023-02-18T22:34:56.774Z,101351.28
2023-02-18T22:37:25.981Z,101343.75
2023-02-18T22:39:55.115Z,101332.75
2023-02-18T22:42:24.467Z,101323.44
2023-02-18T22:44:53.681Z,101332.44
2023-02-18T22:47:24.241Z,101341.00
2023-02-18T22:49:53.470Z,101345.19
2023-02-18T22:52:22.821Z,101341.91
2023-02-18T22:54:52.975Z,101329.47
2023-02-18T22:57:26.133Z,101327.25
2023-02-18T22:59:55.525Z,101321.16
2023-02-18T23:02:27.398Z,101334.56
2023-02-18T23:04:56.480Z,101323.59
2023-02-18T23:07:26.050Z,101326.78
2023-02-18T23:09:55.273Z,101324.03
2023-02-18T23:12:24.688Z,101328.41
2023-02-18T23:14:53.722Z,101322.44
2023-02-18T23:17:25.286Z,101323.34
2023-02-18T23:19:55.583Z,101328.19
2023-02-18T23:22:30.241Z,101323.59
2023-02-18T23:24:59.349Z,101321.84
2023-02-18T23:27:29.293Z,101319.56
2023-02-18T23:29:58.576Z,101314.13
2023-02-18T23:32:30.609Z,101315.22
2023-02-18T23:34:59.655Z,101311.22
2023-02-18T23:37:43.962Z,101309.25
2023-02-18T23:40:14.730Z,101300.63
2023-02-18T23:42:43.878Z,101295.44
2023-02-18T23:45:13.025Z,101289.00
2023-02-18T23:47:43.497Z,101290.00
2023-02-18T23:50:15.897Z,101291.22
2023-02-18T23:52:45.081Z,101287.25
2023-02-18T23:55:14.149Z,101289.25
2023-02-18T23:57:43.431Z,101293.53
